sensor_id;sensor_type;location;lat;lon;timestamp;temperature;humidity
18281;DHT22;9266;51.132;17.062;2023-05-18T00:01:15;8.50;1.00
18281;DHT22;9266;51.132;17.062;2023-05-18T00:03:42;8.50;1.00
18281;DHT22;9266;51.132;17.062;2023-05-18T00:06:10;8.50;1.00
18281;DHT22;9266;51.132;17.062;2023-05-18T00:08:38;8.50;1.00
18281;DHT22;9266;51.132;17.062;2023-05-18T00:11:05;8.50;1.00
18281;DHT22;9266;51.132;17.062;2023-05-18T00:13:32;8.40;1.00
18281;DHT22;9266;51.132;17.062;2023-05-18T00:16:00;8.40;1.00
18281;DHT22;9266;51.132;17.062;2023-05-18T00:18:27;8.30;15.60
18281;DHT22;9266;51.132;17.062;2023-05-18T00:20:54;8.30;1.00
18281;DHT22;9266;51.132;17.062;2023-05-18T00:23:25;8.30;1.00
18281;DHT22;9266;51.132;17.062;2023-05-18T00:25:55;8.30;1.00
18281;DHT22;9266;51.132;17.062;2023-05-18T00:28:22;8.30;1.00
18281;DHT22;9266;51.132;17.062;2023-05-18T00:30:49;8.20;1.00
18281;DHT22;9266;51.132;17.062;2023-05-18T00:33:16;8.20;1.00
18281;DHT22;9266;51.132;17.062;2023-05-18T00:35:43;8.10;1.00
18281;DHT22;9266;51.132;17.062;2023-05-18T00:38:10;8.10;99.90
18281;DHT22;9266;51.132;17.062;2023-05-18T00:40:41;8.10;99.90
18281;DHT22;9266;51.132;17.062;2023-05-18T00:43:08;8.00;1.00
18281;DHT22;9266;51.132;17.062;2023-05-18T00:45:35;8.00;1.00
18281;DHT22;9266;51.132;17.062;2023-05-18T00:48:02;8.00;1.00
18281;DHT22;9266;51.132;17.062;2023-05-18T00:50:29;8.00;1.00
18281;DHT22;9266;51.132;17.062;2023-05-18T00:52:57;8.00;99.90
18281;DHT22;9266;51.132;17.062;2023-05-18T00:55:24;8.00;99.90
18281;DHT22;9266;51.132;17.062;2023-05-18T00:57:53;8.00;99.90
18281;DHT22;9266;51.132;17.062;2023-05-18T01:00:21;8.00;99.90
18281;DHT22;9266;51.132;17.062;2023-05-18T01:02:48;8.00;99.90
18281;DHT22;9266;51.132;17.062;2023-05-18T01:05:15;7.90;99.90
18281;DHT22;9266;51.132;17.062;2023-05-18T01:07:44;7.90;99.90
18281;DHT22;9266;51.132;17.062;2023-05-18T01:10:13;7.90;1.00
18281;DHT22;9266;51.132;17.062;2023-05-18T01:12:46;7.80;1.00
18281;DHT22;9266;51.132;17.062;2023-05-18T01:15:17;7.80;1.00
18281;DHT22;9266;51.132;17.062;2023-05-18T01:17:53;7.70;1.00
18281;DHT22;9266;51.132;17.062;2023-05-18T01:20:31;7.70;1.00
18281;DHT22;9266;51.132;17.062;2023-05-18T01:23:39;7.70;1.00
18281;DHT22;9266;51.132;17.062;2023-05-18T01:26:27;7.70;1.00
18281;DHT22;9266;51.132;17.062;2023-05-18T01:28:58;7.70;1.00
18281;DHT22;9266;51.132;17.062;2023-05-18T01:31:26;7.70;1.00
18281;DHT22;9266;51.132;17.062;2023-05-18T01:33:53;7.70;1.00
18281;DHT22;9266;51.132;17.062;2023-05-18T01:36:20;7.60;1.00
18281;DHT22;9266;51.132;17.062;2023-05-18T01:38:48;7.60;45.80
18281;DHT22;9266;51.132;17.062;2023-05-18T01:41:20;7.60;1.00
18281;DHT22;9266;51.132;17.062;2023-05-18T01:43:52;7.50;1.00
18281;DHT22;9266;51.132;17.062;2023-05-18T01:46:29;7.60;1.00
18281;DHT22;9266;51.132;17.062;2023-05-18T01:49:00;7.50;1.00
18281;DHT22;9266;51.132;17.062;2023-05-18T01:51:31;7.40;45.80
18281;DHT22;9266;51.132;17.062;2023-05-18T01:54:02;7.50;1.00
18281;DHT22;9266;51.132;17.062;2023-05-18T01:56:33;7.40;99.90
18281;DHT22;9266;51.132;17.062;2023-05-18T01:59:00;7.40;9.90
18281;DHT22;9266;51.132;17.062;2023-05-18T02:01:28;7.40;99.90
18281;DHT22;9266;51.132;17.062;2023-05-18T02:03:55;7.40;1.00
18281;DHT22;9266;51.132;17.062;2023-05-18T02:06:22;7.30;1.00
18281;DHT22;9266;51.132;17.062;2023-05-18T02:08:50;7.30;99.90
18281;DHT22;9266;51.132;17.062;2023-05-18T02:11:17;7.20;28.70
18281;DHT22;9266;51.132;17.062;2023-05-18T02:13:45;7.20;1.00
18281;DHT22;9266;51.132;17.062;2023-05-18T02:16:12;7.20;1.00
18281;DHT22;9266;51.132;17.062;2023-05-18T02:18:39;7.20;1.00
18281;DHT22;9266;51.132;17.062;2023-05-18T02:21:07;7.20;1.00
18281;DHT22;9266;51.132;17.062;2023-05-18T02:23:35;7.20;1.00
18281;DHT22;9266;51.132;17.062;2023-05-18T02:26:02;7.10;1.00
18281;DHT22;9266;51.132;17.062;2023-05-18T02:28:29;7.10;1.00
18281;DHT22;9266;51.132;17.062;2023-05-18T02:31:05;7.10;1.00
18281;DHT22;9266;51.132;17.062;2023-05-18T02:33:32;7.10;1.00
18281;DHT22;9266;51.132;17.062;2023-05-18T02:36:06;7.00;1.00
18281;DHT22;9266;51.132;17.062;2023-05-18T02:38:35;7.00;1.00
18281;DHT22;9266;51.132;17.062;2023-05-18T02:41:03;7.10;1.00
18281;DHT22;9266;51.132;17.062;2023-05-18T02:43:30;7.10;1.00
18281;DHT22;9266;51.132;17.062;2023-05-18T02:45:57;7.10;99.90
18281;DHT22;9266;51.132;17.062;2023-05-18T02:48:26;7.20;94.70
18281;DHT22;9266;51.132;17.062;2023-05-18T02:50:53;7.20;99.90
18281;DHT22;9266;51.132;17.062;2023-05-18T02:53:20;7.20;64.90
18281;DHT22;9266;51.132;17.062;2023-05-18T02:55:48;7.20;1.00
18281;DHT22;9266;51.132;17.062;2023-05-18T02:58:18;7.20;1.00
18281;DHT22;9266;51.132;17.062;2023-05-18T03:00:48;7.30;1.00
18281;DHT22;9266;51.132;17.062;2023-05-18T03:03:17;7.30;99.90
18281;DHT22;9266;51.132;17.062;2023-05-18T03:05:45;7.30;1.00
18281;DHT22;9266;51.132;17.062;2023-05-18T03:08:12;7.30;98.40
18281;DHT22;9266;51.132;17.062;2023-05-18T03:10:40;7.30;90.50
18281;DHT22;9266;51.132;17.062;2023-05-18T03:13:07;7.40;1.00
18281;DHT22;9266;51.132;17.062;2023-05-18T03:15:33;7.40;1.00
18281;DHT22;9266;51.132;17.062;2023-05-18T03:18:02;7.50;1.00
18281;DHT22;9266;51.132;17.062;2023-05-18T03:20:29;7.50;1.00
18281;DHT22;9266;51.132;17.062;2023-05-18T03:22:58;7.40;1.00
18281;DHT22;9266;51.132;17.062;2023-05-18T03:25:25;7.50;1.00
18281;DHT22;9266;51.132;17.062;2023-05-18T03:27:52;7.50;99.90
18281;DHT22;9266;51.132;17.062;2023-05-18T03:30:19;7.50;99.90
18281;DHT22;9266;51.132;17.062;2023-05-18T03:32:46;7.50;99.90
18281;DHT22;9266;51.132;17.062;2023-05-18T03:35:13;7.50;99.60
18281;DHT22;9266;51.132;17.062;2023-05-18T03:37:41;7.40;99.90
18281;DHT22;9266;51.132;17.062;2023-05-18T03:40:11;7.50;99.90
18281;DHT22;9266;51.132;17.062;2023-05-18T03:42:39;7.50;99.90
18281;DHT22;9266;51.132;17.062;2023-05-18T03:45:08;7.50;99.90
18281;DHT22;9266;51.132;17.062;2023-05-18T03:47:35;7.50;99.90
18281;DHT22;9266;51.132;17.062;2023-05-18T03:50:03;7.50;99.90
18281;DHT22;9266;51.132;17.062;2023-05-18T03:52:30;7.50;99.90
18281;DHT22;9266;51.132;17.062;2023-05-18T03:54:59;7.50;99.90
18281;DHT22;9266;51.132;17.062;2023-05-18T03:57:27;7.50;1.00
18281;DHT22;9266;51.132;17.062;2023-05-18T03:59:55;7.50;1.00
18281;DHT22;9266;51.132;17.062;2023-05-18T04:02:22;7.60;1.00
18281;DHT22;9266;51.132;17.062;2023-05-18T04:04:49;7.60;1.00
18281;DHT22;9266;51.132;17.062;2023-05-18T04:07:19;7.60;1.00
18281;DHT22;9266;51.132;17.062;2023-05-18T04:09:49;7.70;1.00
18281;DHT22;9266;51.132;17.062;2023-05-18T04:12:16;7.60;1.00
18281;DHT22;9266;51.132;17.062;2023-05-18T04:14:45;7.60;1.00
18281;DHT22;9266;51.132;17.062;2023-05-18T04:17:15;7.60;1.00
18281;DHT22;9266;51.132;17.062;2023-05-18T04:19:42;7.80;99.90
18281;DHT22;9266;51.132;17.062;2023-05-18T04:22:09;7.70;99.90
18281;DHT22;9266;51.132;17.062;2023-05-18T04:24:36;7.80;1.00
18281;DHT22;9266;51.132;17.062;2023-05-18T04:27:06;7.80;1.00
18281;DHT22;9266;51.132;17.062;2023-05-18T04:29:34;7.70;49.10
18281;DHT22;9266;51.132;17.062;2023-05-18T04:32:05;7.70;98.40
18281;DHT22;9266;51.132;17.062;2023-05-18T04:34:33;7.80;24.50
18281;DHT22;9266;51.132;17.062;2023-05-18T04:37:01;7.70;99.90
18281;DHT22;9266;51.132;17.062;2023-05-18T04:39:30;7.80;1.00
18281;DHT22;9266;51.132;17.062;2023-05-18T04:41:57;7.90;1.00
18281;DHT22;9266;51.132;17.062;2023-05-18T04:44:25;7.90;1.00
18281;DHT22;9266;51.132;17.062;2023-05-18T04:46:53;7.90;99.90
18281;DHT22;9266;51.132;17.062;2023-05-18T04:49:22;7.80;1.00
18281;DHT22;9266;51.132;17.062;2023-05-18T04:51:52;7.90;1.00
18281;DHT22;9266;51.132;17.062;2023-05-18T04:54:21;8.00;99.90
18281;DHT22;9266;51.132;17.062;2023-05-18T04:56:49;8.00;99.90
18281;DHT22;9266;51.132;17.062;2023-05-18T04:59:16;8.10;99.90
18281;DHT22;9266;51.132;17.062;2023-05-18T05:01:43;8.20;14.10
18281;DHT22;9266;51.132;17.062;2023-05-18T05:04:11;8.30;1.00
18281;DHT22;9266;51.132;17.062;2023-05-18T05:06:39;8.50;99.90
18281;DHT22;9266;51.132;17.062;2023-05-18T05:09:06;8.70;1.00
18281;DHT22;9266;51.132;17.062;2023-05-18T05:11:33;8.60;41.00
18281;DHT22;9266;51.132;17.062;2023-05-18T05:14:00;8.70;99.90
18281;DHT22;9266;51.132;17.062;2023-05-18T05:16:27;8.60;99.90
18281;DHT22;9266;51.132;17.062;2023-05-18T05:18:55;8.70;1.00
18281;DHT22;9266;51.132;17.062;2023-05-18T05:21:22;8.50;1.00
18281;DHT22;9266;51.132;17.062;2023-05-18T05:23:50;8.50;99.90
18281;DHT22;9266;51.132;17.062;2023-05-18T05:26:18;8.60;1.00
18281;DHT22;9266;51.132;17.062;2023-05-18T05:28:46;8.60;1.00
18281;DHT22;9266;51.132;17.062;2023-05-18T05:31:13;8.80;1.00
18281;DHT22;9266;51.132;17.062;2023-05-18T05:33:40;8.80;1.00
18281;DHT22;9266;51.132;17.062;2023-05-18T05:36:08;9.00;39.20
18281;DHT22;9266;51.132;17.062;2023-05-18T05:38:36;9.00;1.00
18281;DHT22;9266;51.132;17.062;2023-05-18T05:41:05;9.00;1.00
18281;DHT22;9266;51.132;17.062;2023-05-18T05:43:32;9.30;1.00
18281;DHT22;9266;51.132;17.062;2023-05-18T05:45:59;9.30;1.00
18281;DHT22;9266;51.132;17.062;2023-05-18T05:48:26;9.40;1.00
18281;DHT22;9266;51.132;17.062;2023-05-18T05:50:53;9.50;99.90
18281;DHT22;9266;51.132;17.062;2023-05-18T05:53:20;9.70;1.00
18281;DHT22;9266;51.132;17.062;2023-05-18T05:55:48;9.90;1.00
18281;DHT22;9266;51.132;17.062;2023-05-18T05:58:17;10.30;1.00
18281;DHT22;9266;51.132;17.062;2023-05-18T06:00:44;10.20;1.00
18281;DHT22;9266;51.132;17.062;2023-05-18T06:03:12;9.90;1.00
18281;DHT22;9266;51.132;17.062;2023-05-18T06:05:39;10.10;1.00
18281;DHT22;9266;51.132;17.062;2023-05-18T06:08:06;10.20;1.00
18281;DHT22;9266;51.132;17.062;2023-05-18T06:10:33;10.30;1.00
18281;DHT22;9266;51.132;17.062;2023-05-18T06:13:00;10.60;1.00
18281;DHT22;9266;51.132;17.062;2023-05-18T06:15:28;10.50;99.90
18281;DHT22;9266;51.132;17.062;2023-05-18T06:17:55;10.50;99.90
18281;DHT22;9266;51.132;17.062;2023-05-18T06:20:22;10.50;99.90
18281;DHT22;9266;51.132;17.062;2023-05-18T06:22:50;10.60;99.90
18281;DHT22;9266;51.132;17.062;2023-05-18T06:25:18;10.90;99.90
18281;DHT22;9266;51.132;17.062;2023-05-18T06:27:45;11.00;99.90
18281;DHT22;9266;51.132;17.062;2023-05-18T06:30:13;11.00;99.90
18281;DHT22;9266;51.132;17.062;2023-05-18T06:32:41;10.80;94.80
18281;DHT22;9266;51.132;17.062;2023-05-18T06:35:09;10.80;95.20
18281;DHT22;9266;51.132;17.062;2023-05-18T06:37:37;10.80;28.30
18281;DHT22;9266;51.132;17.062;2023-05-18T06:40:06;10.90;1.00
18281;DHT22;9266;51.132;17.062;2023-05-18T06:42:33;11.10;1.00
18281;DHT22;9266;51.132;17.062;2023-05-18T06:45:01;11.40;1.00
18281;DHT22;9266;51.132;17.062;2023-05-18T06:47:28;11.50;1.00
18281;DHT22;9266;51.132;17.062;2023-05-18T06:49:56;11.00;1.00
18281;DHT22;9266;51.132;17.062;2023-05-18T06:52:23;10.90;1.00
18281;DHT22;9266;51.132;17.062;2023-05-18T06:54:50;11.00;1.00
18281;DHT22;9266;51.132;17.062;2023-05-18T06:57:17;11.20;1.00
18281;DHT22;9266;51.132;17.062;2023-05-18T06:59:45;11.30;1.00
18281;DHT22;9266;51.132;17.062;2023-05-18T07:02:18;11.50;1.00
18281;DHT22;9266;51.132;17.062;2023-05-18T07:04:45;11.40;1.00
18281;DHT22;9266;51.132;17.062;2023-05-18T07:07:13;11.40;1.00
18281;DHT22;9266;51.132;17.062;2023-05-18T07:09:41;11.30;1.00
18281;DHT22;9266;51.132;17.062;2023-05-18T07:12:10;11.40;1.00
18281;DHT22;9266;51.132;17.062;2023-05-18T07:14:37;11.20;1.00
18281;DHT22;9266;51.132;17.062;2023-05-18T07:17:04;11.30;1.00
18281;DHT22;9266;51.132;17.062;2023-05-18T07:19:32;11.60;1.00
18281;DHT22;9266;51.132;17.062;2023-05-18T07:21:59;12.10;1.00
18281;DHT22;9266;51.132;17.062;2023-05-18T07:24:28;12.00;1.00
18281;DHT22;9266;51.132;17.062;2023-05-18T07:26:55;12.10;1.00
18281;DHT22;9266;51.132;17.062;2023-05-18T07:29:22;12.20;1.00
18281;DHT22;9266;51.132;17.062;2023-05-18T07:31:49;12.60;1.00
18281;DHT22;9266;51.132;17.062;2023-05-18T07:34:16;12.60;1.00
18281;DHT22;9266;51.132;17.062;2023-05-18T07:36:43;12.50;1.00
18281;DHT22;9266;51.132;17.062;2023-05-18T07:39:10;12.60;1.00
18281;DHT22;9266;51.132;17.062;2023-05-18T07:41:44;12.60;1.00
18281;DHT22;9266;51.132;17.062;2023-05-18T07:44:11;12.80;1.00
18281;DHT22;9266;51.132;17.062;2023-05-18T07:46:39;13.30;99.90
18281;DHT22;9266;51.132;17.062;2023-05-18T07:49:06;13.40;1.00
18281;DHT22;9266;51.132;17.062;2023-05-18T07:51:33;14.10;1.00
18281;DHT22;9266;51.132;17.062;2023-05-18T07:54:00;13.70;1.00
18281;DHT22;9266;51.132;17.062;2023-05-18T07:56:27;13.70;1.00
18281;DHT22;9266;51.132;17.062;2023-05-18T07:58:55;14.30;1.00
18281;DHT22;9266;51.132;17.062;2023-05-18T08:01:22;14.10;1.00
18281;DHT22;9266;51.132;17.062;2023-05-18T08:03:52;13.90;99.90
18281;DHT22;9266;51.132;17.062;2023-05-18T08:06:19;13.90;99.90
18281;DHT22;9266;51.132;17.062;2023-05-18T08:08:46;13.60;99.90
18281;DHT22;9266;51.132;17.062;2023-05-18T08:11:13;14.30;99.90
18281;DHT22;9266;51.132;17.062;2023-05-18T08:13:40;14.40;99.90
18281;DHT22;9266;51.132;17.062;2023-05-18T08:16:09;14.10;1.00
18281;DHT22;9266;51.132;17.062;2023-05-18T08:18:36;14.10;99.90
18281;DHT22;9266;51.132;17.062;2023-05-18T08:21:03;14.10;99.90
18281;DHT22;9266;51.132;17.062;2023-05-18T08:23:32;14.80;99.90
18281;DHT22;9266;51.132;17.062;2023-05-18T08:25:59;15.20;99.90
18281;DHT22;9266;51.132;17.062;2023-05-18T08:28:28;14.90;99.90
18281;DHT22;9266;51.132;17.062;2023-05-18T08:30:55;15.00;99.90
18281;DHT22;9266;51.132;17.062;2023-05-18T08:33:23;14.70;99.90
18281;DHT22;9266;51.132;17.062;2023-05-18T08:35:50;15.10;99.90
18281;DHT22;9266;51.132;17.062;2023-05-18T08:38:17;15.20;99.90
18281;DHT22;9266;51.132;17.062;2023-05-18T08:41:01;15.50;99.90
18281;DHT22;9266;51.132;17.062;2023-05-18T08:43:32;16.10;99.90
18281;DHT22;9266;51.132;17.062;2023-05-18T08:46:05;15.40;99.90
18281;DHT22;9266;51.132;17.062;2023-05-18T08:48:35;14.60;99.90
18281;DHT22;9266;51.132;17.062;2023-05-18T08:51:05;14.40;99.90
18281;DHT22;9266;51.132;17.062;2023-05-18T08:53:36;14.00;99.90
18281;DHT22;9266;51.132;17.062;2023-05-18T08:56:04;14.10;99.90
18281;DHT22;9266;51.132;17.062;2023-05-18T08:58:34;14.50;99.90
18281;DHT22;9266;51.132;17.062;2023-05-18T09:01:03;13.80;99.90
18281;DHT22;9266;51.132;17.062;2023-05-18T09:03:30;13.60;99.90
18281;DHT22;9266;51.132;17.062;2023-05-18T09:05:59;14.10;99.90
18281;DHT22;9266;51.132;17.062;2023-05-18T09:08:28;14.80;99.90
18281;DHT22;9266;51.132;17.062;2023-05-18T09:10:57;15.10;99.90
18281;DHT22;9266;51.132;17.062;2023-05-18T09:13:25;14.80;99.90
18281;DHT22;9266;51.132;17.062;2023-05-18T09:15:53;14.90;99.90
18281;DHT22;9266;51.132;17.062;2023-05-18T09:18:20;14.70;99.90
18281;DHT22;9266;51.132;17.062;2023-05-18T09:20:47;14.90;99.90
18281;DHT22;9266;51.132;17.062;2023-05-18T09:23:16;14.90;99.90
18281;DHT22;9266;51.132;17.062;2023-05-18T09:25:44;14.80;99.90
18281;DHT22;9266;51.132;17.062;2023-05-18T09:28:12;14.50;99.90
18281;DHT22;9266;51.132;17.062;2023-05-18T09:30:40;14.60;99.90
18281;DHT22;9266;51.132;17.062;2023-05-18T09:33:15;14.30;99.90
18281;DHT22;9266;51.132;17.062;2023-05-18T09:35:43;14.20;99.90
18281;DHT22;9266;51.132;17.062;2023-05-18T09:38:11;14.50;99.90
18281;DHT22;9266;51.132;17.062;2023-05-18T09:40:44;14.00;99.90
18281;DHT22;9266;51.132;17.062;2023-05-18T09:43:11;14.10;99.90
18281;DHT22;9266;51.132;17.062;2023-05-18T09:45:41;14.30;99.90
18281;DHT22;9266;51.132;17.062;2023-05-18T09:48:09;14.50;99.90
18281;DHT22;9266;51.132;17.062;2023-05-18T09:50:37;14.40;99.90
18281;DHT22;9266;51.132;17.062;2023-05-18T09:53:06;14.40;99.90
18281;DHT22;9266;51.132;17.062;2023-05-18T09:55:36;14.80;99.90
18281;DHT22;9266;51.132;17.062;2023-05-18T09:58:08;15.00;99.90
18281;DHT22;9266;51.132;17.062;2023-05-18T10:00:41;14.30;99.90
18281;DHT22;9266;51.132;17.062;2023-05-18T10:03:16;14.60;99.90
18281;DHT22;9266;51.132;17.062;2023-05-18T10:05:44;14.40;99.90
18281;DHT22;9266;51.132;17.062;2023-05-18T10:08:12;14.20;99.90
18281;DHT22;9266;51.132;17.062;2023-05-18T10:10:44;14.20;99.90
18281;DHT22;9266;51.132;17.062;2023-05-18T10:13:15;14.00;99.90
18281;DHT22;9266;51.132;17.062;2023-05-18T10:15:49;14.10;99.40
18281;DHT22;9266;51.132;17.062;2023-05-18T10:18:20;14.20;99.90
18281;DHT22;9266;51.132;17.062;2023-05-18T10:20:50;14.50;99.90
18281;DHT22;9266;51.132;17.062;2023-05-18T10:23:18;14.60;99.90
18281;DHT22;9266;51.132;17.062;2023-05-18T10:25:48;14.80;99.90
18281;DHT22;9266;51.132;17.062;2023-05-18T10:28:20;14.70;99.90
18281;DHT22;9266;51.132;17.062;2023-05-18T10:30:51;14.10;99.90
18281;DHT22;9266;51.132;17.062;2023-05-18T10:33:21;14.10;99.90
18281;DHT22;9266;51.132;17.062;2023-05-18T10:35:49;14.40;99.90
18281;DHT22;9266;51.132;17.062;2023-05-18T10:38:21;14.60;99.90
18281;DHT22;9266;51.132;17.062;2023-05-18T10:40:49;14.30;99.90
18281;DHT22;9266;51.132;17.062;2023-05-18T10:43:20;14.10;99.90
18281;DHT22;9266;51.132;17.062;2023-05-18T10:45:52;13.90;99.90
18281;DHT22;9266;51.132;17.062;2023-05-18T10:48:20;14.10;96.20
18281;DHT22;9266;51.132;17.062;2023-05-18T10:50:48;14.30;99.90
18281;DHT22;9266;51.132;17.062;2023-05-18T10:53:17;14.50;99.90
18281;DHT22;9266;51.132;17.062;2023-05-18T10:55:45;14.60;99.90
18281;DHT22;9266;51.132;17.062;2023-05-18T10:58:14;14.40;99.90
18281;DHT22;9266;51.132;17.062;2023-05-18T11:00:45;14.00;68.10
18281;DHT22;9266;51.132;17.062;2023-05-18T11:03:13;14.40;99.90
18281;DHT22;9266;51.132;17.062;2023-05-18T11:05:43;14.40;99.90
18281;DHT22;9266;51.132;17.062;2023-05-18T11:08:23;14.20;99.90
18281;DHT22;9266;51.132;17.062;2023-05-18T11:10:59;14.10;99.90
18281;DHT22;9266;51.132;17.062;2023-05-18T11:13:28;14.50;99.90
18281;DHT22;9266;51.132;17.062;2023-05-18T11:16:04;14.40;99.90
18281;DHT22;9266;51.132;17.062;2023-05-18T11:18:49;14.40;99.90
18281;DHT22;9266;51.132;17.062;2023-05-18T11:21:30;14.70;99.90
18281;DHT22;9266;51.132;17.062;2023-05-18T11:24:29;14.70;14.50
18281;DHT22;9266;51.132;17.062;2023-05-18T11:26:57;14.50;1.00
18281;DHT22;9266;51.132;17.062;2023-05-18T11:29:31;14.60;27.20
18281;DHT22;9266;51.132;17.062;2023-05-18T11:32:01;14.80;15.70
18281;DHT22;9266;51.132;17.062;2023-05-18T11:34:42;14.70;1.00
18281;DHT22;9266;51.132;17.062;2023-05-18T11:37:13;14.90;31.00
18281;DHT22;9266;51.132;17.062;2023-05-18T11:39:41;14.80;39.20
18281;DHT22;9266;51.132;17.062;2023-05-18T11:42:09;14.90;51.30
18281;DHT22;9266;51.132;17.062;2023-05-18T11:44:36;14.70;47.70
18281;DHT22;9266;51.132;17.062;2023-05-18T11:47:09;14.50;10.30
18281;DHT22;9266;51.132;17.062;2023-05-18T11:49:41;14.30;20.30
18281;DHT22;9266;51.132;17.062;2023-05-18T11:52:14;14.30;30.00
18281;DHT22;9266;51.132;17.062;2023-05-18T11:54:44;14.50;42.70
18281;DHT22;9266;51.132;17.062;2023-05-18T11:57:12;14.60;15.20
18281;DHT22;9266;51.132;17.062;2023-05-18T11:59:41;14.50;2.50
18281;DHT22;9266;51.132;17.062;2023-05-18T12:02:11;14.50;7.50
18281;DHT22;9266;51.132;17.062;2023-05-18T12:04:44;14.80;1.00
18281;DHT22;9266;51.132;17.062;2023-05-18T12:07:12;14.90;23.80
18281;DHT22;9266;51.132;17.062;2023-05-18T12:09:40;14.90;43.10
18281;DHT22;9266;51.132;17.062;2023-05-18T12:12:10;15.10;45.40
18281;DHT22;9266;51.132;17.062;2023-05-18T12:14:39;14.90;25.10
18281;DHT22;9266;51.132;17.062;2023-05-18T12:17:06;14.90;23.00
18281;DHT22;9266;51.132;17.062;2023-05-18T12:19:42;15.00;36.50
18281;DHT22;9266;51.132;17.062;2023-05-18T12:22:10;15.10;30.90
18281;DHT22;9266;51.132;17.062;2023-05-18T12:24:37;15.20;1.00
18281;DHT22;9266;51.132;17.062;2023-05-18T12:27:06;15.50;1.00
18281;DHT22;9266;51.132;17.062;2023-05-18T12:29:37;15.40;24.10
18281;DHT22;9266;51.132;17.062;2023-05-18T12:32:05;15.60;1.00
18281;DHT22;9266;51.132;17.062;2023-05-18T12:34:33;15.90;1.00
18281;DHT22;9266;51.132;17.062;2023-05-18T12:37:01;15.50;1.00
18281;DHT22;9266;51.132;17.062;2023-05-18T12:39:28;15.60;1.00
18281;DHT22;9266;51.132;17.062;2023-05-18T12:42:08;15.50;1.00
18281;DHT22;9266;51.132;17.062;2023-05-18T12:44:35;15.40;1.00
18281;DHT22;9266;51.132;17.062;2023-05-18T12:47:03;15.30;1.00
18281;DHT22;9266;51.132;17.062;2023-05-18T12:49:35;15.50;1.00
18281;DHT22;9266;51.132;17.062;2023-05-18T12:52:09;15.70;1.00
18281;DHT22;9266;51.132;17.062;2023-05-18T12:54:47;16.00;1.00
18281;DHT22;9266;51.132;17.062;2023-05-18T12:57:19;15.90;1.00
18281;DHT22;9266;51.132;17.062;2023-05-18T12:59:50;16.20;1.00
18281;DHT22;9266;51.132;17.062;2023-05-18T13:02:35;16.00;1.00
18281;DHT22;9266;51.132;17.062;2023-05-18T13:05:04;15.80;1.00
18281;DHT22;9266;51.132;17.062;2023-05-18T13:07:34;15.60;1.00
18281;DHT22;9266;51.132;17.062;2023-05-18T13:10:04;15.80;1.00
18281;DHT22;9266;51.132;17.062;2023-05-18T13:12:37;16.00;1.00
18281;DHT22;9266;51.132;17.062;2023-05-18T13:15:09;16.20;1.00
18281;DHT22;9266;51.132;17.062;2023-05-18T13:17:36;16.30;1.00
18281;DHT22;9266;51.132;17.062;2023-05-18T13:20:11;16.40;1.00
18281;DHT22;9266;51.132;17.062;2023-05-18T13:22:40;16.50;1.00
18281;DHT22;9266;51.132;17.062;2023-05-18T13:25:09;16.70;1.00
18281;DHT22;9266;51.132;17.062;2023-05-18T13:27:36;16.40;1.00
18281;DHT22;9266;51.132;17.062;2023-05-18T13:30:05;16.30;1.00
18281;DHT22;9266;51.132;17.062;2023-05-18T13:32:32;16.10;1.00
18281;DHT22;9266;51.132;17.062;2023-05-18T13:34:59;16.40;1.00
18281;DHT22;9266;51.132;17.062;2023-05-18T13:37:26;16.60;1.00
18281;DHT22;9266;51.132;17.062;2023-05-18T13:39:55;16.40;1.00
18281;DHT22;9266;51.132;17.062;2023-05-18T13:42:22;16.30;1.00
18281;DHT22;9266;51.132;17.062;2023-05-18T13:44:49;16.40;1.00
18281;DHT22;9266;51.132;17.062;2023-05-18T13:47:16;16.40;1.00
18281;DHT22;9266;51.132;17.062;2023-05-18T13:49:43;16.60;1.00
18281;DHT22;9266;51.132;17.062;2023-05-18T13:52:10;16.70;1.00
18281;DHT22;9266;51.132;17.062;2023-05-18T13:54:37;16.70;1.00
18281;DHT22;9266;51.132;17.062;2023-05-18T13:57:05;16.70;1.00
18281;DHT22;9266;51.132;17.062;2023-05-18T13:59:33;16.70;1.00
18281;DHT22;9266;51.132;17.062;2023-05-18T14:02:01;16.30;1.00
18281;DHT22;9266;51.132;17.062;2023-05-18T14:04:28;16.30;1.00
18281;DHT22;9266;51.132;17.062;2023-05-18T14:06:55;16.60;1.00
18281;DHT22;9266;51.132;17.062;2023-05-18T14:09:23;16.60;1.00
18281;DHT22;9266;51.132;17.062;2023-05-18T14:11:50;16.90;1.00
18281;DHT22;9266;51.132;17.062;2023-05-18T14:14:19;16.80;1.00
18281;DHT22;9266;51.132;17.062;2023-05-18T14:16:46;16.70;1.00
18281;DHT22;9266;51.132;17.062;2023-05-18T14:19:13;16.80;1.00
18281;DHT22;9266;51.132;17.062;2023-05-18T14:21:40;16.90;1.00
18281;DHT22;9266;51.132;17.062;2023-05-18T14:24:08;17.00;1.00
18281;DHT22;9266;51.132;17.062;2023-05-18T14:26:35;17.10;1.00
18281;DHT22;9266;51.132;17.062;2023-05-18T14:29:02;17.30;1.00
18281;DHT22;9266;51.132;17.062;2023-05-18T14:31:31;17.20;1.00
18281;DHT22;9266;51.132;17.062;2023-05-18T14:33:59;17.20;1.00
18281;DHT22;9266;51.132;17.062;2023-05-18T14:36:26;17.10;1.00
18281;DHT22;9266;51.132;17.062;2023-05-18T14:38:53;17.20;1.00
18281;DHT22;9266;51.132;17.062;2023-05-18T14:41:20;17.20;1.00
18281;DHT22;9266;51.132;17.062;2023-05-18T14:43:47;17.20;1.00
18281;DHT22;9266;51.132;17.062;2023-05-18T14:46:15;17.50;1.00
18281;DHT22;9266;51.132;17.062;2023-05-18T14:48:44;17.20;1.00
18281;DHT22;9266;51.132;17.062;2023-05-18T14:51:11;17.10;1.00
18281;DHT22;9266;51.132;17.062;2023-05-18T14:53:40;17.10;1.00
18281;DHT22;9266;51.132;17.062;2023-05-18T14:56:07;17.30;1.00
18281;DHT22;9266;51.132;17.062;2023-05-18T14:58:34;17.50;1.00
18281;DHT22;9266;51.132;17.062;2023-05-18T15:01:02;17.80;1.00
18281;DHT22;9266;51.132;17.062;2023-05-18T15:03:29;17.90;1.00
18281;DHT22;9266;51.132;17.062;2023-05-18T15:05:57;17.80;1.00
18281;DHT22;9266;51.132;17.062;2023-05-18T15:08:24;17.70;1.00
18281;DHT22;9266;51.132;17.062;2023-05-18T15:10:51;17.40;1.00
18281;DHT22;9266;51.132;17.062;2023-05-18T15:13:19;17.20;1.00
18281;DHT22;9266;51.132;17.062;2023-05-18T15:15:46;17.20;1.00
18281;DHT22;9266;51.132;17.062;2023-05-18T15:18:13;17.20;1.00
18281;DHT22;9266;51.132;17.062;2023-05-18T15:20:40;17.20;1.00
18281;DHT22;9266;51.132;17.062;2023-05-18T15:23:11;17.20;1.00
18281;DHT22;9266;51.132;17.062;2023-05-18T15:25:38;17.20;1.00
18281;DHT22;9266;51.132;17.062;2023-05-18T15:28:06;17.30;1.00
18281;DHT22;9266;51.132;17.062;2023-05-18T15:30:33;17.10;1.00
18281;DHT22;9266;51.132;17.062;2023-05-18T15:33:00;17.00;1.00
18281;DHT22;9266;51.132;17.062;2023-05-18T15:35:28;17.10;1.00
18281;DHT22;9266;51.132;17.062;2023-05-18T15:37:55;17.20;1.00
18281;DHT22;9266;51.132;17.062;2023-05-18T15:40:24;17.30;1.00
18281;DHT22;9266;51.132;17.062;2023-05-18T15:42:51;17.40;1.00
18281;DHT22;9266;51.132;17.062;2023-05-18T15:45:18;17.40;1.00
18281;DHT22;9266;51.132;17.062;2023-05-18T15:47:46;17.30;1.00
18281;DHT22;9266;51.132;17.062;2023-05-18T15:50:13;17.10;1.00
18281;DHT22;9266;51.132;17.062;2023-05-18T15:52:40;16.90;1.00
18281;DHT22;9266;51.132;17.062;2023-05-18T15:55:07;16.80;1.00